sensor_id;sensor_type;location;lat;lon;timestamp;temperature;humidity
52481;DHT22;38393;52.404;13.532;2023-09-30T00:01:50;16.50;99.90
52481;DHT22;38393;52.404;13.532;2023-09-30T00:04:18;16.50;99.90
52481;DHT22;38393;52.404;13.532;2023-09-30T00:06:43;16.50;99.90
52481;DHT22;38393;52.404;13.532;2023-09-30T00:09:08;16.50;99.90
52481;DHT22;38393;52.404;13.532;2023-09-30T00:11:37;16.50;99.90
52481;DHT22;38393;52.404;13.532;2023-09-30T00:14:03;16.60;99.90
52481;DHT22;38393;52.404;13.532;2023-09-30T00:16:29;16.60;99.90
52481;DHT22;38393;52.404;13.532;2023-09-30T00:18:56;16.80;99.90
52481;DHT22;38393;52.404;13.532;2023-09-30T00:21:23;16.80;99.90
52481;DHT22;38393;52.404;13.532;2023-09-30T00:23:49;16.90;99.90
52481;DHT22;38393;52.404;13.532;2023-09-30T00:26:14;16.90;99.90
52481;DHT22;38393;52.404;13.532;2023-09-30T00:28:40;16.90;99.90
52481;DHT22;38393;52.404;13.532;2023-09-30T00:31:07;16.90;99.90
52481;DHT22;38393;52.404;13.532;2023-09-30T00:33:34;16.90;99.90
52481;DHT22;38393;52.404;13.532;2023-09-30T00:35:59;16.80;99.90
52481;DHT22;38393;52.404;13.532;2023-09-30T00:38:30;16.80;99.90
52481;DHT22;38393;52.404;13.532;2023-09-30T00:40:56;16.70;99.90
52481;DHT22;38393;52.404;13.532;2023-09-30T00:43:21;16.70;99.90
52481;DHT22;38393;52.404;13.532;2023-09-30T00:46:17;16.60;99.90
52481;DHT22;38393;52.404;13.532;2023-09-30T00:48:47;16.40;99.90
52481;DHT22;38393;52.404;13.532;2023-09-30T00:51:13;16.30;99.90
52481;DHT22;38393;52.404;13.532;2023-09-30T00:53:39;16.30;99.90
52481;DHT22;38393;52.404;13.532;2023-09-30T00:56:05;16.20;99.90
52481;DHT22;38393;52.404;13.532;2023-09-30T00:58:31;16.20;99.90
52481;DHT22;38393;52.404;13.532;2023-09-30T01:00:58;16.20;99.90
52481;DHT22;38393;52.404;13.532;2023-09-30T01:03:25;16.20;99.90
52481;DHT22;38393;52.404;13.532;2023-09-30T01:05:50;16.10;99.90
52481;DHT22;38393;52.404;13.532;2023-09-30T01:08:16;16.00;99.90
52481;DHT22;38393;52.404;13.532;2023-09-30T01:10:43;16.00;99.90
52481;DHT22;38393;52.404;13.532;2023-09-30T01:13:09;15.90;99.90
52481;DHT22;38393;52.404;13.532;2023-09-30T01:15:35;15.90;99.90
52481;DHT22;38393;52.404;13.532;2023-09-30T01:18:02;15.80;99.90
52481;DHT22;38393;52.404;13.532;2023-09-30T01:20:28;15.80;99.90
52481;DHT22;38393;52.404;13.532;2023-09-30T01:22:54;15.70;99.90
52481;DHT22;38393;52.404;13.532;2023-09-30T01:25:21;15.60;99.90
52481;DHT22;38393;52.404;13.532;2023-09-30T01:27:47;15.60;99.90
52481;DHT22;38393;52.404;13.532;2023-09-30T01:30:13;15.50;99.90
52481;DHT22;38393;52.404;13.532;2023-09-30T01:32:39;15.60;99.90
52481;DHT22;38393;52.404;13.532;2023-09-30T01:35:05;15.50;99.90
52481;DHT22;38393;52.404;13.532;2023-09-30T01:37:31;15.40;99.90
52481;DHT22;38393;52.404;13.532;2023-09-30T01:40:03;15.30;99.90
52481;DHT22;38393;52.404;13.532;2023-09-30T01:42:32;15.30;99.90
52481;DHT22;38393;52.404;13.532;2023-09-30T01:44:57;15.30;99.90
52481;DHT22;38393;52.404;13.532;2023-09-30T01:47:23;15.20;99.90
52481;DHT22;38393;52.404;13.532;2023-09-30T01:49:48;15.20;99.90
52481;DHT22;38393;52.404;13.532;2023-09-30T01:52:14;15.10;99.90
52481;DHT22;38393;52.404;13.532;2023-09-30T01:54:40;15.10;99.90
52481;DHT22;38393;52.404;13.532;2023-09-30T01:57:05;15.10;99.90
52481;DHT22;38393;52.404;13.532;2023-09-30T01:59:31;15.00;99.90
52481;DHT22;38393;52.404;13.532;2023-09-30T02:01:56;15.00;99.90
52481;DHT22;38393;52.404;13.532;2023-09-30T02:04:22;15.00;99.90
52481;DHT22;38393;52.404;13.532;2023-09-30T02:06:48;14.90;99.90
52481;DHT22;38393;52.404;13.532;2023-09-30T02:09:14;14.80;99.90
52481;DHT22;38393;52.404;13.532;2023-09-30T02:11:39;14.80;99.90
52481;DHT22;38393;52.404;13.532;2023-09-30T02:14:06;14.70;99.90
52481;DHT22;38393;52.404;13.532;2023-09-30T02:16:31;14.70;99.90
52481;DHT22;38393;52.404;13.532;2023-09-30T02:18:57;14.70;99.90
52481;DHT22;38393;52.404;13.532;2023-09-30T02:21:23;14.70;99.90
52481;DHT22;38393;52.404;13.532;2023-09-30T02:23:48;14.60;99.90
52481;DHT22;38393;52.404;13.532;2023-09-30T02:26:15;14.60;99.90
52481;DHT22;38393;52.404;13.532;2023-09-30T02:28:40;14.50;99.90
52481;DHT22;38393;52.404;13.532;2023-09-30T02:31:06;14.50;99.90
52481;DHT22;38393;52.404;13.532;2023-09-30T02:33:33;14.50;99.90
52481;DHT22;38393;52.404;13.532;2023-09-30T02:36:01;14.40;99.90
52481;DHT22;38393;52.404;13.532;2023-09-30T02:38:26;14.40;99.90
52481;DHT22;38393;52.404;13.532;2023-09-30T02:40:53;14.30;99.90
52481;DHT22;38393;52.404;13.532;2023-09-30T02:43:19;14.20;99.90
52481;DHT22;38393;52.404;13.532;2023-09-30T02:45:45;14.20;99.90
52481;DHT22;38393;52.404;13.532;2023-09-30T02:48:11;14.20;99.90
52481;DHT22;38393;52.404;13.532;2023-09-30T02:50:37;14.20;99.90
52481;DHT22;38393;52.404;13.532;2023-09-30T02:53:02;14.20;99.90
52481;DHT22;38393;52.404;13.532;2023-09-30T02:55:28;14.10;99.90
52481;DHT22;38393;52.404;13.532;2023-09-30T02:57:53;14.00;99.90
52481;DHT22;38393;52.404;13.532;2023-09-30T03:00:19;13.90;99.90
52481;DHT22;38393;52.404;13.532;2023-09-30T03:03:00;13.80;99.90
52481;DHT22;38393;52.404;13.532;2023-09-30T03:05:27;13.70;99.90
52481;DHT22;38393;52.404;13.532;2023-09-30T03:07:53;13.70;99.90
52481;DHT22;38393;52.404;13.532;2023-09-30T03:10:20;13.80;99.90
52481;DHT22;38393;52.404;13.532;2023-09-30T03:12:49;13.80;99.90
52481;DHT22;38393;52.404;13.532;2023-09-30T03:15:15;13.90;99.90
52481;DHT22;38393;52.404;13.532;2023-09-30T03:17:41;13.90;99.90
52481;DHT22;38393;52.404;13.532;2023-09-30T03:20:11;13.80;99.90
52481;DHT22;38393;52.404;13.532;2023-09-30T03:22:40;13.80;99.90
52481;DHT22;38393;52.404;13.532;2023-09-30T03:25:07;13.80;99.90
52481;DHT22;38393;52.404;13.532;2023-09-30T03:27:33;13.80;99.90
52481;DHT22;38393;52.404;13.532;2023-09-30T03:29:59;13.70;99.90
52481;DHT22;38393;52.404;13.532;2023-09-30T03:32:26;13.70;99.90
52481;DHT22;38393;52.404;13.532;2023-09-30T03:34:52;13.60;99.90
52481;DHT22;38393;52.404;13.532;2023-09-30T03:37:18;13.60;99.90
52481;DHT22;38393;52.404;13.532;2023-09-30T03:39:43;13.50;99.90
52481;DHT22;38393;52.404;13.532;2023-09-30T03:42:08;13.50;99.90
52481;DHT22;38393;52.404;13.532;2023-09-30T03:44:37;13.40;99.90
52481;DHT22;38393;52.404;13.532;2023-09-30T03:47:03;13.40;99.90
52481;DHT22;38393;52.404;13.532;2023-09-30T03:49:28;13.40;99.90
52481;DHT22;38393;52.404;13.532;2023-09-30T03:51:54;13.40;99.90
52481;DHT22;38393;52.404;13.532;2023-09-30T03:54:19;13.40;99.90
52481;DHT22;38393;52.404;13.532;2023-09-30T03:56:47;13.30;99.90
52481;DHT22;38393;52.404;13.532;2023-09-30T03:59:12;13.40;99.90
52481;DHT22;38393;52.404;13.532;2023-09-30T04:01:38;13.30;99.90
52481;DHT22;38393;52.404;13.532;2023-09-30T04:04:08;13.30;99.90
52481;DHT22;38393;52.404;13.532;2023-09-30T04:06:35;13.30;99.90
52481;DHT22;38393;52.404;13.532;2023-09-30T04:09:03;13.20;99.90
52481;DHT22;38393;52.404;13.532;2023-09-30T04:11:35;13.20;99.90
52481;DHT22;38393;52.404;13.532;2023-09-30T04:14:01;13.10;99.90
52481;DHT22;38393;52.404;13.532;2023-09-30T04:16:26;13.10;99.90
52481;DHT22;38393;52.404;13.532;2023-09-30T04:18:54;13.10;99.90
52481;DHT22;38393;52.404;13.532;2023-09-30T04:21:20;13.10;99.90
52481;DHT22;38393;52.404;13.532;2023-09-30T04:23:46;12.90;99.90
52481;DHT22;38393;52.404;13.532;2023-09-30T04:26:11;12.80;99.90
52481;DHT22;38393;52.404;13.532;2023-09-30T04:28:37;12.90;99.90
52481;DHT22;38393;52.404;13.532;2023-09-30T04:31:02;13.00;99.90
52481;DHT22;38393;52.404;13.532;2023-09-30T04:33:28;12.90;99.90
52481;DHT22;38393;52.404;13.532;2023-09-30T04:35:54;12.90;99.90
52481;DHT22;38393;52.404;13.532;2023-09-30T04:38:19;12.80;99.90
52481;DHT22;38393;52.404;13.532;2023-09-30T04:40:45;12.70;99.90
52481;DHT22;38393;52.404;13.532;2023-09-30T04:43:13;12.70;99.90
52481;DHT22;38393;52.404;13.532;2023-09-30T04:45:39;12.70;99.90
52481;DHT22;38393;52.404;13.532;2023-09-30T04:48:05;12.70;99.90
52481;DHT22;38393;52.404;13.532;2023-09-30T04:50:31;12.60;99.90
52481;DHT22;38393;52.404;13.532;2023-09-30T04:52:57;12.60;99.90
52481;DHT22;38393;52.404;13.532;2023-09-30T04:55:25;12.50;99.90
52481;DHT22;38393;52.404;13.532;2023-09-30T04:57:51;12.50;99.90
52481;DHT22;38393;52.404;13.532;2023-09-30T05:00:19;12.50;99.90
52481;DHT22;38393;52.404;13.532;2023-09-30T05:02:50;12.40;99.90
52481;DHT22;38393;52.404;13.532;2023-09-30T05:05:16;12.30;99.90
52481;DHT22;38393;52.404;13.532;2023-09-30T05:07:41;12.30;99.90
52481;DHT22;38393;52.404;13.532;2023-09-30T05:10:07;12.30;99.90
52481;DHT22;38393;52.404;13.532;2023-09-30T05:12:37;12.20;99.90
52481;DHT22;38393;52.404;13.532;2023-09-30T05:15:03;12.20;99.90
52481;DHT22;38393;52.404;13.532;2023-09-30T05:17:31;12.10;99.90
52481;DHT22;38393;52.404;13.532;2023-09-30T05:19:57;12.20;99.90
52481;DHT22;38393;52.404;13.532;2023-09-30T05:22:23;12.10;99.90
52481;DHT22;38393;52.404;13.532;2023-09-30T05:24:53;12.10;99.90
52481;DHT22;38393;52.404;13.532;2023-09-30T05:27:19;12.20;99.90
52481;DHT22;38393;52.404;13.532;2023-09-30T05:29:45;12.10;99.90
52481;DHT22;38393;52.404;13.532;2023-09-30T05:32:10;12.10;99.90
52481;DHT22;38393;52.404;13.532;2023-09-30T05:34:36;12.10;99.90
52481;DHT22;38393;52.404;13.532;2023-09-30T05:37:02;12.10;99.90
52481;DHT22;38393;52.404;13.532;2023-09-30T05:39:28;12.10;99.90
52481;DHT22;38393;52.404;13.532;2023-09-30T05:41:54;12.10;99.90
52481;DHT22;38393;52.404;13.532;2023-09-30T05:44:20;12.20;99.90
52481;DHT22;38393;52.404;13.532;2023-09-30T05:46:46;12.20;99.90
52481;DHT22;38393;52.404;13.532;2023-09-30T05:49:12;12.30;99.90
52481;DHT22;38393;52.404;13.532;2023-09-30T05:51:40;12.40;99.90
52481;DHT22;38393;52.404;13.532;2023-09-30T05:54:06;12.40;99.90
52481;DHT22;38393;52.404;13.532;2023-09-30T05:56:35;12.50;99.90
52481;DHT22;38393;52.404;13.532;2023-09-30T05:59:02;12.50;99.90
52481;DHT22;38393;52.404;13.532;2023-09-30T06:01:28;12.60;99.90
52481;DHT22;38393;52.404;13.532;2023-09-30T06:03:53;12.70;99.90
52481;DHT22;38393;52.404;13.532;2023-09-30T06:06:20;12.90;99.90
52481;DHT22;38393;52.404;13.532;2023-09-30T06:08:45;12.90;99.90
52481;DHT22;38393;52.404;13.532;2023-09-30T06:11:18;13.10;99.90
52481;DHT22;38393;52.404;13.532;2023-09-30T06:13:47;13.20;99.90
52481;DHT22;38393;52.404;13.532;2023-09-30T06:16:13;13.30;99.90
52481;DHT22;38393;52.404;13.532;2023-09-30T06:18:38;13.40;99.90
52481;DHT22;38393;52.404;13.532;2023-09-30T06:21:04;13.40;99.90
52481;DHT22;38393;52.404;13.532;2023-09-30T06:23:30;13.50;99.90
52481;DHT22;38393;52.404;13.532;2023-09-30T06:25:57;13.50;99.90
52481;DHT22;38393;52.404;13.532;2023-09-30T06:28:22;13.50;99.90
52481;DHT22;38393;52.404;13.532;2023-09-30T06:30:51;13.50;99.90
52481;DHT22;38393;52.404;13.532;2023-09-30T06:33:17;13.50;99.90
52481;DHT22;38393;52.404;13.532;2023-09-30T06:35:43;13.60;99.90
52481;DHT22;38393;52.404;13.532;2023-09-30T06:38:16;13.50;99.90
52481;DHT22;38393;52.404;13.532;2023-09-30T06:40:43;13.60;99.90
52481;DHT22;38393;52.404;13.532;2023-09-30T06:43:08;13.60;99.90
52481;DHT22;38393;52.404;13.532;2023-09-30T06:45:34;13.70;99.90
52481;DHT22;38393;52.404;13.532;2023-09-30T06:47:59;13.70;99.90
52481;DHT22;38393;52.404;13.532;2023-09-30T06:50:25;13.80;99.90
52481;DHT22;38393;52.404;13.532;2023-09-30T06:52:50;13.90;99.90
52481;DHT22;38393;52.404;13.532;2023-09-30T06:55:16;13.90;99.90
52481;DHT22;38393;52.404;13.532;2023-09-30T06:57:44;14.00;99.90
52481;DHT22;38393;52.404;13.532;2023-09-30T07:00:11;14.00;99.90
52481;DHT22;38393;52.404;13.532;2023-09-30T07:02:38;14.10;99.90
52481;DHT22;38393;52.404;13.532;2023-09-30T07:05:08;14.20;99.90
52481;DHT22;38393;52.404;13.532;2023-09-30T07:07:34;14.10;99.90
52481;DHT22;38393;52.404;13.532;2023-09-30T07:09:59;14.30;99.90
52481;DHT22;38393;52.404;13.532;2023-09-30T07:12:25;14.50;99.90
52481;DHT22;38393;52.404;13.532;2023-09-30T07:14:50;14.40;99.90
52481;DHT22;38393;52.404;13.532;2023-09-30T07:17:15;14.60;99.90
52481;DHT22;38393;52.404;13.532;2023-09-30T07:19:41;14.80;99.90
52481;DHT22;38393;52.404;13.532;2023-09-30T07:22:06;14.80;99.90
52481;DHT22;38393;52.404;13.532;2023-09-30T07:24:32;14.90;99.90
52481;DHT22;38393;52.404;13.532;2023-09-30T07:26:57;14.70;99.90
52481;DHT22;38393;52.404;13.532;2023-09-30T07:29:24;14.70;99.90
52481;DHT22;38393;52.404;13.532;2023-09-30T07:31:49;14.90;99.90
52481;DHT22;38393;52.404;13.532;2023-09-30T07:34:16;14.90;99.90
52481;DHT22;38393;52.404;13.532;2023-09-30T07:36:41;14.90;99.90
52481;DHT22;38393;52.404;13.532;2023-09-30T07:39:07;14.90;99.90
52481;DHT22;38393;52.404;13.532;2023-09-30T07:41:35;14.90;99.90
52481;DHT22;38393;52.404;13.532;2023-09-30T07:44:02;15.00;99.90
52481;DHT22;38393;52.404;13.532;2023-09-30T07:46:28;14.90;99.90
52481;DHT22;38393;52.404;13.532;2023-09-30T07:48:53;15.00;99.90
52481;DHT22;38393;52.404;13.532;2023-09-30T07:51:20;15.20;99.90
52481;DHT22;38393;52.404;13.532;2023-09-30T07:53:45;15.20;99.90
52481;DHT22;38393;52.404;13.532;2023-09-30T07:56:11;15.20;99.90
52481;DHT22;38393;52.404;13.532;2023-09-30T07:58:37;15.30;99.90
52481;DHT22;38393;52.404;13.532;2023-09-30T08:01:02;15.40;99.90
52481;DHT22;38393;52.404;13.532;2023-09-30T08:03:28;15.50;99.90
52481;DHT22;38393;52.404;13.532;2023-09-30T08:05:53;15.30;99.90
52481;DHT22;38393;52.404;13.532;2023-09-30T08:08:19;15.10;99.90
52481;DHT22;38393;52.404;13.532;2023-09-30T08:10:44;15.30;99.90
52481;DHT22;38393;52.404;13.532;2023-09-30T08:13:09;15.10;99.90
52481;DHT22;38393;52.404;13.532;2023-09-30T08:15:35;15.20;99.90
52481;DHT22;38393;52.404;13.532;2023-09-30T08:18:01;15.20;99.90
52481;DHT22;38393;52.404;13.532;2023-09-30T08:20:28;15.10;99.90
52481;DHT22;38393;52.404;13.532;2023-09-30T08:22:53;15.10;99.90
52481;DHT22;38393;52.404;13.532;2023-09-30T08:25:19;15.20;99.90
52481;DHT22;38393;52.404;13.532;2023-09-30T08:27:44;15.50;99.90
52481;DHT22;38393;52.404;13.532;2023-09-30T08:30:15;15.60;99.90
52481;DHT22;38393;52.404;13.532;2023-09-30T08:32:41;15.80;99.90
52481;DHT22;38393;52.404;13.532;2023-09-30T08:35:07;15.80;99.90
52481;DHT22;38393;52.404;13.532;2023-09-30T08:37:32;16.00;99.90
52481;DHT22;38393;52.404;13.532;2023-09-30T08:39:58;16.20;99.90
52481;DHT22;38393;52.404;13.532;2023-09-30T08:42:23;16.00;99.90
52481;DHT22;38393;52.404;13.532;2023-09-30T08:44:53;16.10;99.90
52481;DHT22;38393;52.404;13.532;2023-09-30T08:47:22;16.20;99.90
52481;DHT22;38393;52.404;13.532;2023-09-30T08:49:51;16.50;99.90
52481;DHT22;38393;52.404;13.532;2023-09-30T08:52:22;16.50;99.90
52481;DHT22;38393;52.404;13.532;2023-09-30T08:54:48;16.30;99.90
52481;DHT22;38393;52.404;13.532;2023-09-30T08:57:14;16.50;99.90
52481;DHT22;38393;52.404;13.532;2023-09-30T08:59:41;16.50;99.90
52481;DHT22;38393;52.404;13.532;2023-09-30T09:02:08;16.70;99.90
52481;DHT22;38393;52.404;13.532;2023-09-30T09:04:35;16.70;99.90
52481;DHT22;38393;52.404;13.532;2023-09-30T09:07:01;16.60;99.90
52481;DHT22;38393;52.404;13.532;2023-09-30T09:09:27;16.40;99.90
52481;DHT22;38393;52.404;13.532;2023-09-30T09:11:52;16.40;99.90
52481;DHT22;38393;52.404;13.532;2023-09-30T09:14:18;16.50;99.90
52481;DHT22;38393;52.404;13.532;2023-09-30T09:16:55;16.60;99.90
52481;DHT22;38393;52.404;13.532;2023-09-30T09:19:20;16.60;99.90
52481;DHT22;38393;52.404;13.532;2023-09-30T09:21:57;16.60;99.90
52481;DHT22;38393;52.404;13.532;2023-09-30T09:24:38;16.60;99.90
52481;DHT22;38393;52.404;13.532;2023-09-30T09:27:05;16.60;99.90
52481;DHT22;38393;52.404;13.532;2023-09-30T09:29:32;16.80;99.90
52481;DHT22;38393;52.404;13.532;2023-09-30T09:32:11;16.90;99.90
52481;DHT22;38393;52.404;13.532;2023-09-30T09:34:37;17.20;99.90
52481;DHT22;38393;52.404;13.532;2023-09-30T09:37:20;17.20;99.90
52481;DHT22;38393;52.404;13.532;2023-09-30T09:40:04;17.50;99.90
52481;DHT22;38393;52.404;13.532;2023-09-30T09:42:33;17.50;99.90
52481;DHT22;38393;52.404;13.532;2023-09-30T09:45:01;17.50;99.90
52481;DHT22;38393;52.404;13.532;2023-09-30T09:47:29;17.40;99.90
52481;DHT22;38393;52.404;13.532;2023-09-30T09:49:57;17.40;99.90
52481;DHT22;38393;52.404;13.532;2023-09-30T09:52:23;17.60;99.90
52481;DHT22;38393;52.404;13.532;2023-09-30T09:54:50;17.70;99.90
52481;DHT22;38393;52.404;13.532;2023-09-30T09:57:17;17.80;99.90
52481;DHT22;38393;52.404;13.532;2023-09-30T09:59:43;18.00;99.90
52481;DHT22;38393;52.404;13.532;2023-09-30T10:02:13;18.00;99.90
52481;DHT22;38393;52.404;13.532;2023-09-30T10:04:44;18.10;99.90
52481;DHT22;38393;52.404;13.532;2023-09-30T10:07:18;18.30;99.90
52481;DHT22;38393;52.404;13.532;2023-09-30T10:09:47;18.30;99.90
52481;DHT22;38393;52.404;13.532;2023-09-30T10:12:14;18.10;99.90
52481;DHT22;38393;52.404;13.532;2023-09-30T10:14:40;18.20;99.90
52481;DHT22;38393;52.404;13.532;2023-09-30T10:17:05;18.40;99.90
52481;DHT22;38393;52.404;13.532;2023-09-30T10:19:31;18.30;99.90
52481;DHT22;38393;52.404;13.532;2023-09-30T10:24:52;18.50;99.90
52481;DHT22;38393;52.404;13.532;2023-09-30T10:40:51;19.20;95.20
52481;DHT22;38393;52.404;13.532;2023-09-30T10:43:33;19.20;94.60
52481;DHT22;38393;52.404;13.532;2023-09-30T10:46:00;18.90;95.30
52481;DHT22;38393;52.404;13.532;2023-09-30T10:50:56;18.70;93.40
52481;DHT22;38393;52.404;13.532;2023-09-30T10:53:23;18.50;93.90
52481;DHT22;38393;52.404;13.532;2023-09-30T10:56:00;18.50;93.60
52481;DHT22;38393;52.404;13.532;2023-09-30T10:58:45;18.50;93.20
52481;DHT22;38393;52.404;13.532;2023-09-30T11:01:12;18.60;93.30
52481;DHT22;38393;52.404;13.532;2023-09-30T11:03:41;18.80;92.60
52481;DHT22;38393;52.404;13.532;2023-09-30T11:06:07;19.00;93.00
52481;DHT22;38393;52.404;13.532;2023-09-30T11:08:37;18.90;92.50
52481;DHT22;38393;52.404;13.532;2023-09-30T11:11:03;18.80;92.80
52481;DHT22;38393;52.404;13.532;2023-09-30T11:13:33;18.70;92.50
52481;DHT22;38393;52.404;13.532;2023-09-30T11:16:03;18.60;92.20
52481;DHT22;38393;52.404;13.532;2023-09-30T11:18:32;18.60;91.70
52481;DHT22;38393;52.404;13.532;2023-09-30T11:21:05;18.80;91.70
52481;DHT22;38393;52.404;13.532;2023-09-30T11:23:31;19.10;91.20
52481;DHT22;38393;52.404;13.532;2023-09-30T11:25:57;19.20;91.00
52481;DHT22;38393;52.404;13.532;2023-09-30T11:28:22;19.10;90.00
52481;DHT22;38393;52.404;13.532;2023-09-30T11:30:59;19.10;88.90
52481;DHT22;38393;52.404;13.532;2023-09-30T11:33:25;19.10;87.30
52481;DHT22;38393;52.404;13.532;2023-09-30T11:36:03;19.10;87.30
52481;DHT22;38393;52.404;13.532;2023-09-30T11:38:31;18.90;88.70
52481;DHT22;38393;52.404;13.532;2023-09-30T11:41:04;18.80;89.50
52481;DHT22;38393;52.404;13.532;2023-09-30T11:43:32;18.90;90.30
52481;DHT22;38393;52.404;13.532;2023-09-30T11:46:08;18.90;91.00
52481;DHT22;38393;52.404;13.532;2023-09-30T11:48:35;19.10;89.30
52481;DHT22;38393;52.404;13.532;2023-09-30T11:51:01;19.30;89.10
52481;DHT22;38393;52.404;13.532;2023-09-30T11:53:29;19.30;87.10
52481;DHT22;38393;52.404;13.532;2023-09-30T11:55:59;19.10;87.70
52481;DHT22;38393;52.404;13.532;2023-09-30T11:58:26;19.00;90.00
52481;DHT22;38393;52.404;13.532;2023-09-30T12:00:55;19.20;89.50
52481;DHT22;38393;52.404;13.532;2023-09-30T12:03:22;19.40;90.00
52481;DHT22;38393;52.404;13.532;2023-09-30T12:05:48;19.20;88.30
52481;DHT22;38393;52.404;13.532;2023-09-30T12:08:14;19.10;90.40
52481;DHT22;38393;52.404;13.532;2023-09-30T12:10:40;18.90;89.20
52481;DHT22;38393;52.404;13.532;2023-09-30T12:13:05;18.90;90.00
52481;DHT22;38393;52.404;13.532;2023-09-30T12:15:31;19.00;90.40
52481;DHT22;38393;52.404;13.532;2023-09-30T12:17:57;19.10;89.80
52481;DHT22;38393;52.404;13.532;2023-09-30T12:20:22;19.30;89.90
52481;DHT22;38393;52.404;13.532;2023-09-30T12:22:48;19.40;88.90
52481;DHT22;38393;52.404;13.532;2023-09-30T12:25:14;19.60;89.10
52481;DHT22;38393;52.404;13.532;2023-09-30T12:27:39;19.60;84.20
52481;DHT22;38393;52.404;13.532;2023-09-30T12:30:06;19.40;85.30
52481;DHT22;38393;52.404;13.532;2023-09-30T12:32:32;19.40;86.40
52481;DHT22;38393;52.404;13.532;2023-09-30T12:34:57;19.40;86.80
52481;DHT22;38393;52.404;13.532;2023-09-30T12:37:23;19.50;84.70
52481;DHT22;38393;52.404;13.532;2023-09-30T12:39:48;19.60;85.70
52481;DHT22;38393;52.404;13.532;2023-09-30T12:42:14;19.60;84.30
52481;DHT22;38393;52.404;13.532;2023-09-30T12:44:41;19.60;81.90
52481;DHT22;38393;52.404;13.532;2023-09-30T12:47:06;19.60;83.20
52481;DHT22;38393;52.404;13.532;2023-09-30T12:49:32;19.50;83.90
52481;DHT22;38393;52.404;13.532;2023-09-30T12:51:57;19.60;79.20
52481;DHT22;38393;52.404;13.532;2023-09-30T12:54:26;19.60;78.70
52481;DHT22;38393;52.404;13.532;2023-09-30T12:56:52;19.60;79.30
52481;DHT22;38393;52.404;13.532;2023-09-30T12:59:17;19.70;78.60
52481;DHT22;38393;52.404;13.532;2023-09-30T13:01:43;19.40;78.50
52481;DHT22;38393;52.404;13.532;2023-09-30T13:04:09;19.30;80.30
52481;DHT22;38393;52.404;13.532;2023-09-30T13:06:35;19.20;83.10
52481;DHT22;38393;52.404;13.532;2023-09-30T13:09:01;19.30;83.40
52481;DHT22;38393;52.404;13.532;2023-09-30T13:11:29;19.40;83.10
52481;DHT22;38393;52.404;13.532;2023-09-30T13:13:54;19.30;86.20
52481;DHT22;38393;52.404;13.532;2023-09-30T13:16:19;19.30;83.20
52481;DHT22;38393;52.404;13.532;2023-09-30T13:18:45;19.30;83.10
52481;DHT22;38393;52.404;13.532;2023-09-30T13:21:11;19.50;83.50
52481;DHT22;38393;52.404;13.532;2023-09-30T13:23:37;19.50;82.00
52481;DHT22;38393;52.404;13.532;2023-09-30T13:26:03;19.60;81.50
52481;DHT22;38393;52.404;13.532;2023-09-30T13:28:28;19.50;80.90
52481;DHT22;38393;52.404;13.532;2023-09-30T13:30:54;19.70;79.70
52481;DHT22;38393;52.404;13.532;2023-09-30T13:33:19;19.60;79.20
52481;DHT22;38393;52.404;13.532;2023-09-30T13:35:46;19.70;78.20
52481;DHT22;38393;52.404;13.532;2023-09-30T13:38:12;19.80;79.10
52481;DHT22;38393;52.404;13.532;2023-09-30T13:40:37;19.80;75.80
52481;DHT22;38393;52.404;13.532;2023-09-30T13:43:06;19.70;71.20
52481;DHT22;38393;52.404;13.532;2023-09-30T13:45:31;19.70;72.90
52481;DHT22;38393;52.404;13.532;2023-09-30T13:47:57;19.60;74.30
52481;DHT22;38393;52.404;13.532;2023-09-30T13:50:22;19.70;74.10
52481;DHT22;38393;52.404;13.532;2023-09-30T13:52:49;19.80;75.30
52481;DHT22;38393;52.404;13.532;2023-09-30T13:55:14;19.60;75.90
52481;DHT22;38393;52.404;13.532;2023-09-30T13:57:48;19.60;75.70
52481;DHT22;38393;52.404;13.532;2023-09-30T14:00:14;19.60;75.00
52481;DHT22;38393;52.404;13.532;2023-09-30T14:02:41;19.60;77.00
52481;DHT22;38393;52.404;13.532;2023-09-30T14:05:07;19.60;76.80
52481;DHT22;38393;52.404;13.532;2023-09-30T14:07:34;19.40;77.60
52481;DHT22;38393;52.404;13.532;2023-09-30T14:09:59;19.50;77.90
52481;DHT22;38393;52.404;13.532;2023-09-30T14:12:24;19.40;78.50
52481;DHT22;38393;52.404;13.532;2023-09-30T14:14:50;19.40;76.90
52481;DHT22;38393;52.404;13.532;2023-09-30T14:17:17;19.40;76.90
52481;DHT22;38393;52.404;13.532;2023-09-30T14:19:43;19.30;77.90
52481;DHT22;38393;52.404;13.532;2023-09-30T14:22:08;19.10;77.90
52481;DHT22;38393;52.404;13.532;2023-09-30T14:24:35;19.20;77.50
52481;DHT22;38393;52.404;13.532;2023-09-30T14:27:02;19.10;76.80
52481;DHT22;38393;52.404;13.532;2023-09-30T14:29:28;19.10;76.60
52481;DHT22;38393;52.404;13.532;2023-09-30T14:31:54;19.20;76.20
52481;DHT22;38393;52.404;13.532;2023-09-30T14:34:20;19.10;76.60
52481;DHT22;38393;52.404;13.532;2023-09-30T14:36:45;19.10;76.30
52481;DHT22;38393;52.404;13.532;2023-09-30T14:39:11;19.00;77.20
52481;DHT22;38393;52.404;13.532;2023-09-30T14:41:36;19.00;77.70
52481;DHT22;38393;52.404;13.532;2023-09-30T14:44:02;19.00;78.00
52481;DHT22;38393;52.404;13.532;2023-09-30T14:46:33;19.00;77.60
52481;DHT22;38393;52.404;13.532;2023-09-30T14:48:59;18.90;75.20
52481;DHT22;38393;52.404;13.532;2023-09-30T14:51:25;19.00;74.30
52481;DHT22;38393;52.404;13.532;2023-09-30T14:53:50;19.00;74.30
52481;DHT22;38393;52.404;13.532;2023-09-30T14:56:17;18.90;73.30
52481;DHT22;38393;52.404;13.532;2023-09-30T14:58:43;18.90;70.80
52481;DHT22;38393;52.404;13.532;2023-09-30T15:01:09;18.90;70.80
52481;DHT22;38393;52.404;13.532;2023-09-30T15:03:35;18.90;70.70
52481;DHT22;38393;52.404;13.532;2023-09-30T15:06:03;18.80;71.00
52481;DHT22;38393;52.404;13.532;2023-09-30T15:08:29;18.80;70.70
52481;DHT22;38393;52.404;13.532;2023-09-30T15:10:55;18.80;70.20
52481;DHT22;38393;52.404;13.532;2023-09-30T15:13:21;18.80;70.80
52481;DHT22;38393;52.404;13.532;2023-09-30T15:15:46;18.80;72.00
52481;DHT22;38393;52.404;13.532;2023-09-30T15:18:11;18.80;71.70
52481;DHT22;38393;52.404;13.532;2023-09-30T15:20:38;18.90;72.50
52481;DHT22;38393;52.404;13.532;2023-09-30T15:23:05;18.80;73.20
52481;DHT22;38393;52.404;13.532;2023-09-30T15:25:30;18.60;74.20
52481;DHT22;38393;52.404;13.532;2023-09-30T15:27:55;18.60;74.80
52481;DHT22;38393;52.404;13.532;2023-09-30T15:30:21;18.60;75.10
52481;DHT22;38393;52.404;13.532;2023-09-30T15:32:48;18.70;75.00